createdAt,value
2023-04-03T00:02:03.961Z,3.03
2023-04-03T00:04:31.348Z,3.20
2023-04-03T00:06:58.218Z,2.87
2023-04-03T00:09:25.164Z,2.97
2023-04-03T00:11:51.957Z,2.37
2023-04-03T00:14:18.882Z,2.67
2023-04-03T00:16:45.836Z,3.00
2023-04-03T00:19:13.721Z,2.80
2023-04-03T00:21:41.293Z,3.70
2023-04-03T00:24:08.163Z,3.07
2023-04-03T00:26:35.008Z,3.00
2023-04-03T00:29:01.959Z,3.20
2023-04-03T00:31:28.816Z,2.83
2023-04-03T00:33:56.041Z,2.40
2023-04-03T00:36:23.577Z,3.73
2023-04-03T00:38:50.516Z,2.70
2023-04-03T00:41:17.510Z,3.03
2023-04-03T00:43:45.003Z,3.40
2023-04-03T00:46:11.967Z,2.67
2023-04-03T00:48:43.848Z,3.57
2023-04-03T00:51:12.676Z,3.63
2023-04-03T00:53:59.713Z,2.50
2023-04-03T00:56:28.550Z,2.60
2023-04-03T00:58:58.585Z,3.03
2023-04-03T01:01:27.273Z,2.83
2023-04-03T01:03:54.321Z,2.63
2023-04-03T01:06:26.420Z,2.53
2023-04-03T01:08:53.727Z,2.80
2023-04-03T01:11:21.881Z,2.50
2023-04-03T01:13:50.315Z,2.90
2023-04-03T01:16:17.308Z,2.53
2023-04-03T01:18:44.541Z,2.73
2023-04-03T01:21:11.474Z,3.33
2023-04-03T01:23:47.616Z,2.53
2023-04-03T01:26:14.592Z,2.70
2023-04-03T01:28:41.614Z,2.30
2023-04-03T01:31:19.811Z,2.50
2023-04-03T01:33:48.292Z,2.90
2023-04-03T01:36:18.118Z,2.80
2023-04-03T01:38:45.289Z,2.67
2023-04-03T01:41:13.019Z,2.53
2023-04-03T01:43:41.853Z,2.13
2023-04-03T01:46:09.107Z,2.33
2023-04-03T01:48:36.071Z,2.70
2023-04-03T01:51:03.019Z,2.63
2023-04-03T01:53:29.841Z,2.30
2023-04-03T01:55:56.773Z,2.50
2023-04-03T01:58:24.082Z,2.00
2023-04-03T02:00:52.599Z,2.47
2023-04-03T02:03:19.798Z,2.60
2023-04-03T02:05:46.770Z,3.10
2023-04-03T02:08:14.251Z,2.73
2023-04-03T02:10:41.162Z,2.53
2023-04-03T02:13:07.964Z,2.77
2023-04-03T02:15:36.421Z,2.70
2023-04-03T02:18:03.251Z,2.73
2023-04-03T02:20:35.068Z,2.87
2023-04-03T02:23:02.651Z,3.27
2023-04-03T02:25:29.656Z,2.70
2023-04-03T02:27:56.658Z,2.20
2023-04-03T02:30:23.537Z,2.90
2023-04-03T02:32:50.859Z,2.30
2023-04-03T02:35:17.852Z,2.67
2023-04-03T02:37:45.554Z,2.80
2023-04-03T02:40:12.705Z,2.80
2023-04-03T02:42:39.741Z,2.90
2023-04-03T02:45:07.071Z,2.33
2023-04-03T02:47:34.187Z,2.07
2023-04-03T02:50:01.180Z,2.47
2023-04-03T02:52:28.210Z,2.60
2023-04-03T02:54:58.023Z,2.70
2023-04-03T02:57:25.084Z,2.53
2023-04-03T02:59:52.008Z,2.50
2023-04-03T03:02:18.923Z,3.13
2023-04-03T03:04:45.910Z,2.50
2023-04-03T03:07:12.826Z,2.57
2023-04-03T03:09:39.725Z,2.90
2023-04-03T03:12:06.626Z,2.33
2023-04-03T03:14:33.424Z,2.77
2023-04-03T03:17:00.605Z,2.70
2023-04-03T03:19:27.382Z,2.60
2023-04-03T03:21:54.238Z,2.53
2023-04-03T03:24:22.972Z,2.10
2023-04-03T03:26:49.847Z,2.20
2023-04-03T03:29:16.741Z,2.90
2023-04-03T03:31:44.735Z,3.03
2023-04-03T03:34:11.602Z,2.30
2023-04-03T03:36:39.125Z,2.87
2023-04-03T03:39:06.229Z,2.43
2023-04-03T03:41:33.244Z,2.43
2023-04-03T03:44:00.746Z,2.30
2023-04-03T03:46:29.923Z,2.87
2023-04-03T03:48:56.908Z,2.40
2023-04-03T03:51:23.849Z,2.70
2023-04-03T03:53:50.984Z,2.73
2023-04-03T03:56:19.753Z,2.50
2023-04-03T03:58:46.906Z,2.83
2023-04-03T04:01:14.173Z,2.80
2023-04-03T04:03:46.442Z,2.93
2023-04-03T04:06:18.080Z,2.57
2023-04-03T04:08:46.138Z,2.27
2023-04-03T04:11:14.157Z,2.93
2023-04-03T04:13:42.484Z,2.80
2023-04-03T04:16:12.217Z,2.23
2023-04-03T04:18:39.302Z,2.57
2023-04-03T04:21:06.281Z,2.67
2023-04-03T04:23:33.567Z,2.30
2023-04-03T04:26:01.377Z,2.40
2023-04-03T04:28:31.890Z,2.30
2023-04-03T04:31:00.675Z,2.47
2023-04-03T04:33:28.424Z,3.00
2023-04-03T04:35:58.112Z,2.67
2023-04-03T04:38:25.292Z,2.80
2023-04-03T04:40:53.836Z,2.40
2023-04-03T04:43:21.465Z,2.60
2023-04-03T04:46:01.752Z,2.87
2023-04-03T04:48:30.713Z,3.07
2023-04-03T04:50:59.027Z,2.40
2023-04-03T04:53:25.883Z,2.97
2023-04-03T04:55:53.317Z,2.30
2023-04-03T04:58:20.901Z,2.10
2023-04-03T05:00:47.960Z,2.80
2023-04-03T05:03:15.201Z,2.53
2023-04-03T05:05:42.136Z,3.00
2023-04-03T05:08:09.523Z,3.07
2023-04-03T05:10:39.362Z,2.30
2023-04-03T05:13:06.262Z,2.57
2023-04-03T05:15:33.140Z,2.70
2023-04-03T05:18:00.409Z,2.27
2023-04-03T05:20:27.255Z,2.90
2023-04-03T05:22:54.557Z,2.27
2023-04-03T05:25:22.752Z,3.00
2023-04-03T05:27:49.661Z,2.47
2023-04-03T05:30:17.679Z,2.60
2023-04-03T05:32:45.659Z,2.93
2023-04-03T05:35:32.870Z,2.73
2023-04-03T05:38:02.198Z,2.40
2023-04-03T05:40:29.852Z,2.80
2023-04-03T05:42:57.590Z,2.93
2023-04-03T05:45:26.730Z,3.00
2023-04-03T05:47:53.670Z,3.23
2023-04-03T05:50:20.757Z,2.80
2023-04-03T05:52:51.464Z,2.80
2023-04-03T05:55:18.519Z,2.27
2023-04-03T05:57:45.541Z,2.97
2023-04-03T06:00:16.842Z,2.87
2023-04-03T06:02:50.420Z,2.43
2023-04-03T06:05:21.977Z,2.93
2023-04-03T06:07:50.733Z,2.57
2023-04-03T06:10:18.657Z,2.90
2023-04-03T06:12:45.856Z,2.43
2023-04-03T06:15:13.028Z,2.87
2023-04-03T06:17:41.071Z,2.87
2023-04-03T06:20:08.972Z,2.57
2023-04-03T06:22:35.859Z,4.23
2023-04-03T06:25:02.914Z,3.23
2023-04-03T06:27:29.795Z,2.03
2023-04-03T06:29:56.750Z,2.90
2023-04-03T06:32:23.539Z,4.20
2023-04-03T06:34:50.448Z,3.43
2023-04-03T06:37:18.720Z,2.90
2023-04-03T06:39:46.441Z,2.70
2023-04-03T06:42:13.358Z,4.00
2023-04-03T06:44:48.769Z,3.60
2023-04-03T06:47:16.333Z,3.73
2023-04-03T06:49:43.994Z,5.37
2023-04-03T06:52:11.034Z,4.00
2023-04-03T06:54:37.891Z,3.30
2023-04-03T06:57:04.988Z,4.60
2023-04-03T06:59:31.888Z,6.23
2023-04-03T07:02:00.917Z,4.27
2023-04-03T07:04:27.860Z,2.63
2023-04-03T07:06:54.838Z,3.50
2023-04-03T07:09:22.727Z,2.23
2023-04-03T07:11:50.201Z,2.80
2023-04-03T07:14:16.978Z,2.40
2023-04-03T07:16:43.893Z,3.23
2023-04-03T07:19:11.077Z,2.90
2023-04-03T07:21:38.504Z,5.27
2023-04-03T07:24:05.915Z,3.37
2023-04-03T07:26:32.799Z,3.33
2023-04-03T07:28:59.679Z,3.70
2023-04-03T07:31:26.537Z,3.20
2023-04-03T07:33:53.645Z,3.33
2023-04-03T07:36:22.307Z,2.23
2023-04-03T07:38:49.304Z,2.67
2023-04-03T07:41:18.772Z,2.70
2023-04-03T07:43:46.363Z,2.93
2023-04-03T07:46:13.377Z,2.67
2023-04-03T07:48:40.898Z,2.47
2023-04-03T07:51:07.781Z,2.90
2023-04-03T07:53:34.686Z,2.63
2023-04-03T07:56:03.818Z,2.63
2023-04-03T07:58:30.969Z,2.33
2023-04-03T08:00:58.509Z,2.20
2023-04-03T08:03:25.802Z,1.77
2023-04-03T08:05:52.745Z,2.17
2023-04-03T08:08:21.578Z,2.00
2023-04-03T08:10:52.594Z,1.70
2023-04-03T08:13:19.850Z,1.70
2023-04-03T08:15:46.774Z,2.37
2023-04-03T08:18:15.068Z,1.80
2023-04-03T08:20:42.045Z,1.90
2023-04-03T08:23:09.785Z,1.80
2023-04-03T08:25:40.759Z,1.93
2023-04-03T08:28:07.809Z,1.50
2023-04-03T08:30:34.981Z,1.40
2023-04-03T08:33:02.843Z,1.63
2023-04-03T08:35:30.089Z,1.33
2023-04-03T08:37:57.794Z,1.47
2023-04-03T08:40:25.745Z,1.50
2023-04-03T08:43:05.691Z,2.03
2023-04-03T08:45:32.473Z,1.20
2023-04-03T08:47:59.254Z,1.93
2023-04-03T08:50:31.148Z,1.17
2023-04-03T08:52:59.535Z,1.40
2023-04-03T08:55:28.337Z,1.50
2023-04-03T08:58:01.416Z,1.53
2023-04-03T09:00:29.619Z,1.20
2023-04-03T09:02:57.684Z,1.53
2023-04-03T09:05:24.530Z,1.40
2023-04-03T09:08:02.664Z,1.57
2023-04-03T09:10:32.458Z,1.50
2023-04-03T09:13:05.561Z,1.10
2023-04-03T09:15:39.067Z,1.50
2023-04-03T09:18:13.055Z,1.40
2023-04-03T09:20:58.834Z,1.10
2023-04-03T09:23:37.803Z,1.00
2023-04-03T09:26:08.838Z,1.30
2023-04-03T09:28:46.884Z,1.20
2023-04-03T09:31:19.156Z,1.80
2023-04-03T09:33:49.101Z,1.30
2023-04-03T09:36:36.165Z,1.30
2023-04-03T09:39:07.387Z,1.67
2023-04-03T09:41:34.489Z,1.20
2023-04-03T09:44:01.329Z,1.30
2023-04-03T09:46:36.182Z,1.47
2023-04-03T09:49:09.437Z,1.20
2023-04-03T09:51:37.650Z,1.90
2023-04-03T09:54:23.226Z,1.40
2023-04-03T09:56:51.290Z,1.07
2023-04-03T09:59:18.327Z,1.63
2023-04-03T10:01:58.742Z,1.20
2023-04-03T10:04:25.756Z,1.60
2023-04-03T10:06:56.384Z,1.07
2023-04-03T10:09:24.531Z,1.20
2023-04-03T10:12:13.232Z,1.27
2023-04-03T10:14:42.300Z,1.23
2023-04-03T10:17:15.679Z,1.23
2023-04-03T10:19:44.704Z,1.30
2023-04-03T10:22:19.884Z,1.00
2023-04-03T10:24:53.933Z,1.43
2023-04-03T10:27:38.920Z,1.40
2023-04-03T10:30:16.294Z,1.40
2023-04-03T10:32:46.304Z,1.40
2023-04-03T10:35:19.655Z,1.73
2023-04-03T10:37:54.740Z,1.30
2023-04-03T10:40:34.941Z,1.50
2023-04-03T10:43:06.338Z,1.30
2023-04-03T10:45:34.219Z,1.37
2023-04-03T10:48:08.849Z,1.10
2023-04-03T10:50:42.031Z,1.10
2023-04-03T10:53:15.451Z,1.43
2023-04-03T10:55:57.698Z,1.57
2023-04-03T10:58:33.614Z,1.40
2023-04-03T11:01:11.374Z,1.30
2023-04-03T11:03:42.545Z,1.30
2023-04-03T11:06:10.904Z,1.33
2023-04-03T11:08:50.218Z,1.37
2023-04-03T11:11:19.027Z,1.50
2023-04-03T11:14:04.718Z,1.27
2023-04-03T11:16:43.340Z,1.20
2023-04-03T11:19:22.938Z,1.10
2023-04-03T11:21:59.258Z,1.63
2023-04-03T11:24:31.287Z,1.53
2023-04-03T11:26:59.942Z,1.60
2023-04-03T11:29:35.902Z,1.23
2023-04-03T11:32:21.795Z,1.30
2023-04-03T11:34:51.215Z,1.40
2023-04-03T11:37:24.349Z,1.47
2023-04-03T11:39:56.970Z,1.20
2023-04-03T11:42:23.924Z,2.00
2023-04-03T11:44:50.754Z,1.70
2023-04-03T11:47:37.058Z,1.43
2023-04-03T11:50:05.340Z,1.30
2023-04-03T11:52:58.234Z,1.53
2023-04-03T11:55:28.073Z,1.80
2023-04-03T11:58:01.586Z,1.50
2023-04-03T12:00:52.728Z,1.53
2023-04-03T12:03:29.042Z,1.07
2023-04-03T12:05:58.590Z,2.00
2023-04-03T12:08:28.234Z,1.43
2023-04-03T12:11:10.373Z,1.50
2023-04-03T12:13:38.277Z,1.60
2023-04-03T12:16:09.043Z,1.10
2023-04-03T12:18:51.492Z,1.73
2023-04-03T12:21:22.905Z,1.63
2023-04-03T12:23:56.402Z,1.43
2023-04-03T12:26:28.242Z,1.50
2023-04-03T12:28:59.578Z,2.00
2023-04-03T12:31:34.236Z,2.17
2023-04-03T12:34:08.942Z,1.60
2023-04-03T12:36:35.846Z,1.57
2023-04-03T12:39:06.921Z,1.67
2023-04-03T12:41:47.508Z,1.33
2023-04-03T12:44:22.660Z,1.90
2023-04-03T12:46:51.135Z,1.93
2023-04-03T12:49:30.119Z,1.13
2023-04-03T12:51:57.063Z,1.30
2023-04-03T12:54:27.142Z,1.23
2023-04-03T12:57:10.114Z,2.07
2023-04-03T12:59:37.774Z,1.80
2023-04-03T13:02:11.714Z,1.50
2023-04-03T13:04:39.504Z,1.63
2023-04-03T13:07:06.656Z,1.20
2023-04-03T13:09:33.722Z,1.93
2023-04-03T13:12:05.298Z,1.63
2023-04-03T13:14:32.253Z,1.93
2023-04-03T13:17:13.841Z,1.73
2023-04-03T13:19:43.024Z,1.83
2023-04-03T13:22:20.512Z,2.20
2023-04-03T13:24:48.899Z,1.80
2023-04-03T13:27:15.959Z,2.20
2023-04-03T13:29:42.951Z,2.37
2023-04-03T13:32:19.038Z,2.07
2023-04-03T13:34:47.560Z,2.17
2023-04-03T13:37:25.504Z,2.33
2023-04-03T13:42:45.937Z,2.17
2023-04-03T13:45:18.220Z,2.33
2023-04-03T13:47:46.663Z,2.53
2023-04-03T13:50:13.607Z,2.33
2023-04-03T13:52:45.346Z,2.10
2023-04-03T13:55:24.786Z,2.47
2023-04-03T13:57:55.635Z,2.80
2023-04-03T14:00:28.620Z,2.57
2023-04-03T14:02:57.689Z,1.93
2023-04-03T14:05:26.465Z,2.70
2023-04-03T14:07:54.181Z,2.30
2023-04-03T14:10:21.348Z,2.23
2023-04-03T14:12:48.533Z,2.70
2023-04-03T14:15:20.094Z,2.47
2023-04-03T14:17:47.191Z,3.30
2023-04-03T14:20:19.163Z,3.07
2023-04-03T14:22:45.978Z,2.63
2023-04-03T14:25:13.260Z,2.53
2023-04-03T14:27:41.412Z,2.23
2023-04-03T14:30:10.705Z,2.60
2023-04-03T14:32:37.617Z,2.50
2023-04-03T14:35:04.747Z,2.83
2023-04-03T14:37:32.173Z,2.37
2023-04-03T14:39:59.663Z,2.80
2023-04-03T14:42:28.769Z,2.67
2023-04-03T14:44:55.615Z,2.37
2023-04-03T14:47:31.350Z,2.17
2023-04-03T14:50:00.137Z,2.57
2023-04-03T14:52:29.367Z,2.23
2023-04-03T14:54:56.353Z,2.80
2023-04-03T14:57:25.221Z,2.63
2023-04-03T14:59:52.352Z,2.70
2023-04-03T15:02:22.407Z,3.13
2023-04-03T15:04:51.377Z,3.23
2023-04-03T15:07:19.430Z,2.70
2023-04-03T15:09:46.664Z,3.10
2023-04-03T15:14:52.407Z,4.00
2023-04-03T15:17:24.963Z,2.37
2023-04-03T15:19:53.145Z,3.40
2023-04-03T15:22:21.034Z,3.57
2023-04-03T15:24:47.897Z,2.60
2023-04-03T15:27:16.575Z,3.00
2023-04-03T15:29:44.208Z,2.90
2023-04-03T15:32:11.459Z,3.67
2023-04-03T15:34:39.738Z,3.17
2023-04-03T15:37:06.736Z,2.80
2023-04-03T15:39:33.725Z,2.90
2023-04-03T15:42:07.175Z,3.70
2023-04-03T15:44:37.382Z,3.33
2023-04-03T15:47:04.319Z,2.60
2023-04-03T15:49:32.114Z,2.60
2023-04-03T15:51:58.939Z,3.93
2023-04-03T15:54:26.596Z,3.10
2023-04-03T15:56:53.972Z,3.80
2023-04-03T15:59:20.943Z,4.50
2023-04-03T16:01:48.155Z,3.90
2023-04-03T16:04:15.990Z,3.97
2023-04-03T16:06:43.055Z,3.70
2023-04-03T16:09:10.631Z,3.00
2023-04-03T16:11:40.337Z,3.20
2023-04-03T16:14:08.074Z,2.90
2023-04-03T16:16:35.010Z,2.17
2023-04-03T16:19:01.980Z,2.93
2023-04-03T16:21:29.030Z,2.47
2023-04-03T16:23:57.962Z,2.40
2023-04-03T16:26:24.909Z,2.60
2023-04-03T16:28:51.719Z,3.10
2023-04-03T16:31:18.830Z,2.80
2023-04-03T16:33:45.744Z,2.10
2023-04-03T16:36:12.583Z,2.77
2023-04-03T16:38:39.565Z,2.27
2023-04-03T16:41:06.515Z,2.47
2023-04-03T16:43:33.737Z,3.30
2023-04-03T16:46:00.789Z,2.83
2023-04-03T16:48:27.555Z,3.27
2023-04-03T16:50:54.627Z,3.10
2023-04-03T16:53:22.391Z,3.60
2023-04-03T16:55:49.414Z,3.77
2023-04-03T16:58:16.516Z,6.13
2023-04-03T17:00:43.877Z,3.53
2023-04-03T17:03:11.122Z,3.60
2023-04-03T17:05:38.404Z,4.20
2023-04-03T17:08:05.672Z,4.13
2023-04-03T17:10:34.701Z,3.13
2023-04-03T17:13:01.513Z,3.90
2023-04-03T17:15:28.480Z,2.50
2023-04-03T17:17:55.565Z,3.60
2023-04-03T17:20:22.471Z,3.20
2023-04-03T17:22:49.420Z,3.60
2023-04-03T17:25:16.378Z,2.53
2023-04-03T17:27:43.344Z,2.70
2023-04-03T17:30:10.417Z,4.30
2023-04-03T17:32:38.718Z,4.43
2023-04-03T17:35:06.128Z,2.97
2023-04-03T17:37:33.008Z,3.10
2023-04-03T17:39:59.785Z,2.67
2023-04-03T17:42:26.813Z,3.10
2023-04-03T17:44:53.727Z,3.67
2023-04-03T17:47:20.877Z,3.57
2023-04-03T17:49:47.663Z,2.90
2023-04-03T17:52:14.614Z,2.77
2023-04-03T17:54:42.987Z,2.60
2023-04-03T17:57:10.425Z,3.07
2023-04-03T17:59:37.423Z,4.13
2023-04-03T18:02:04.334Z,3.40
2023-04-03T18:04:32.109Z,2.50
2023-04-03T18:06:59.415Z,3.87
2023-04-03T18:09:29.456Z,3.50
2023-04-03T18:11:57.152Z,3.93
2023-04-03T18:14:25.515Z,3.70
2023-04-03T18:16:52.554Z,2.93
2023-04-03T18:19:23.459Z,2.83
2023-04-03T18:21:55.840Z,2.87
2023-04-03T18:24:23.237Z,3.00
2023-04-03T18:26:51.707Z,2.90
2023-04-03T18:29:19.008Z,3.00
2023-04-03T18:31:47.786Z,3.50
2023-04-03T18:34:14.669Z,3.50
2023-04-03T18:36:42.009Z,3.70
2023-04-03T18:39:09.201Z,13.00
2023-04-03T18:41:37.099Z,14.27
2023-04-03T18:44:05.014Z,22.60
2023-04-03T18:46:32.791Z,27.43
2023-04-03T18:48:59.924Z,31.27
2023-04-03T18:51:27.066Z,36.33
2023-04-03T18:53:53.929Z,30.30
2023-04-03T18:56:22.213Z,17.83
2023-04-03T18:58:49.133Z,26.37
2023-04-03T19:01:16.454Z,7.47
2023-04-03T19:03:43.614Z,35.03
2023-04-03T19:06:10.785Z,13.37
2023-04-03T19:08:40.766Z,33.13
2023-04-03T19:11:07.639Z,24.60
2023-04-03T19:13:35.429Z,6.53
2023-04-03T19:16:02.621Z,8.07
2023-04-03T19:18:30.501Z,8.90
2023-04-03T19:20:57.740Z,6.33
2023-04-03T19:23:24.829Z,5.60
2023-04-03T19:26:02.068Z,5.27
2023-04-03T19:28:29.243Z,10.63
2023-04-03T19:30:58.003Z,6.60
2023-04-03T19:33:25.280Z,3.90
2023-04-03T19:35:52.213Z,5.77
2023-04-03T19:38:19.126Z,5.10
2023-04-03T19:40:46.565Z,5.00
2023-04-03T19:43:14.874Z,4.40
2023-04-03T19:45:42.182Z,4.83
2023-04-03T19:48:09.288Z,4.60
2023-04-03T19:50:36.237Z,6.27
2023-04-03T19:53:03.111Z,5.53
2023-04-03T19:55:33.094Z,5.90
2023-04-03T19:58:00.790Z,6.03
2023-04-03T20:00:28.953Z,6.17
2023-04-03T20:02:56.362Z,5.60
2023-04-03T20:05:23.717Z,5.37
2023-04-03T20:07:51.136Z,5.40
2023-04-03T20:10:18.313Z,5.10
2023-04-03T20:12:46.300Z,5.00
2023-04-03T20:15:13.538Z,5.70
2023-04-03T20:17:40.880Z,5.40
2023-04-03T20:20:08.106Z,5.30
2023-04-03T20:22:36.059Z,5.33
2023-04-03T20:25:06.321Z,5.80
2023-04-03T20:27:34.836Z,5.40
2023-04-03T20:30:04.091Z,6.47
2023-04-03T20:32:31.618Z,6.50
2023-04-03T20:35:04.460Z,5.87
2023-04-03T20:37:32.097Z,5.23
2023-04-03T20:39:58.915Z,6.37
2023-04-03T20:42:26.383Z,6.13
2023-04-03T20:44:53.299Z,5.87
2023-04-03T20:47:20.492Z,6.20
2023-04-03T20:49:47.286Z,4.90
2023-04-03T20:52:14.178Z,5.87
2023-04-03T20:54:41.487Z,6.53
2023-04-03T20:57:08.367Z,6.23
2023-04-03T20:59:36.013Z,6.47
2023-04-03T21:02:03.554Z,5.77
2023-04-03T21:04:33.363Z,5.47
2023-04-03T21:07:19.240Z,5.87
2023-04-03T21:10:05.161Z,5.33
2023-04-03T21:12:51.011Z,5.00
2023-04-03T21:15:37.003Z,5.43
2023-04-03T21:18:08.344Z,4.03
2023-04-03T21:20:35.910Z,4.43
2023-04-03T21:23:03.584Z,4.97
2023-04-03T21:25:30.907Z,5.10
2023-04-03T21:27:57.943Z,4.17
2023-04-03T21:30:25.344Z,4.17
2023-04-03T21:32:52.248Z,5.67
2023-04-03T21:35:19.746Z,4.87
2023-04-03T21:37:47.077Z,4.60
2023-04-03T21:40:14.609Z,4.13
2023-04-03T21:42:41.358Z,4.80
2023-04-03T21:45:08.834Z,3.60
2023-04-03T21:47:37.085Z,3.87
2023-04-03T21:50:04.468Z,4.10
2023-04-03T21:52:31.885Z,4.37
2023-04-03T21:54:59.260Z,3.77
2023-04-03T21:57:26.589Z,3.87
2023-04-03T21:59:54.041Z,3.43
2023-04-03T22:02:21.175Z,3.47
2023-04-03T22:04:48.581Z,3.63
2023-04-03T22:07:15.842Z,3.30
2023-04-03T22:09:43.082Z,2.97
2023-04-03T22:12:12.692Z,3.07
2023-04-03T22:14:39.742Z,3.87
2023-04-03T22:17:09.392Z,3.50
2023-04-03T22:19:36.396Z,3.50
2023-04-03T22:22:03.815Z,3.50
2023-04-03T22:24:31.170Z,3.40
2023-04-03T22:26:58.312Z,3.10
2023-04-03T22:29:25.634Z,3.17
2023-04-03T22:31:53.440Z,4.07
2023-04-03T22:34:21.531Z,3.83
2023-04-03T22:36:48.727Z,3.43
2023-04-03T22:39:16.626Z,3.47
2023-04-03T22:41:45.565Z,3.70
2023-04-03T22:44:12.823Z,3.60
2023-04-03T22:46:40.166Z,3.83
2023-04-03T22:49:07.321Z,4.07
2023-04-03T22:51:34.308Z,3.80
2023-04-03T22:54:01.627Z,3.73
2023-04-03T22:56:29.052Z,4.17
2023-04-03T22:58:56.975Z,3.97
2023-04-03T23:01:25.394Z,4.10
2023-04-03T23:03:52.471Z,3.77
2023-04-03T23:06:19.796Z,4.43
2023-04-03T23:08:47.482Z,3.53
2023-04-03T23:11:14.641Z,3.50
2023-04-03T23:13:43.978Z,3.80
2023-04-03T23:16:12.485Z,3.90
2023-04-03T23:18:40.175Z,4.07
2023-04-03T23:21:08.545Z,3.73
2023-04-03T23:23:36.813Z,4.57
2023-04-03T23:26:03.912Z,3.97
2023-04-03T23:28:31.740Z,3.77
2023-04-03T23:31:02.144Z,4.10
2023-04-03T23:33:30.796Z,3.83
2023-04-03T23:35:58.918Z,3.93
2023-04-03T23:38:26.775Z,4.50
2023-04-03T23:40:54.515Z,3.93
2023-04-03T23:43:21.827Z,3.93
2023-04-03T23:45:49.156Z,3.93
2023-04-03T23:48:17.412Z,4.67
2023-04-03T23:50:44.717Z,4.27
2023-04-03T23:53:14.879Z,4.40
2023-04-03T23:55:42.705Z,4.33
2023-04-03T23:58:11.178Z,3.97
